Impacts METAR Board
IDs:

KPDX - Portland Intl Arpt, OR, US

Updated at: 0100 UTC 16 Oct 2018
Potential Impact None Slight Moderate High
Time 15/13Z 15/14Z 15/15Z 15/16Z 15/17Z 15/18Z 15/19Z 15/20Z 15/21Z 15/22Z 15/23Z 16/00Z 16/01Z
Temp44 40 43 49 53 57 62 65 68 71 74 72 69
Dewpt39 37 38 39 40 37 31 37 36 37 40 34 36
Altim30.31 30.31 30.31 30.32 30.33 30.32 30.31 30.29 30.27 30.25 30.23 30.22 30.21
VIS10 10 10 10 10 10 10 10 10 10 10 10 10
CIG-- -- -- -- -- -- -- -- -- -- -- -- --
CoverCLRCLRCLRCLRCLRFEWFEWFEWFEWFEWFEWFEWFEW
FltCatVFRVFRVFRVFRVFRVFRVFRVFRVFRVFRVFRVFRVFR
WX--------------------------
WDir310250290310300300280000340110110
WSpd7 4 4 4 5 5 4 3 3 0 3 4 6
WGst-- -- -- -- -- -- -- -- -- -- -- -- --
Raw hourly METARs
KPDX 151253Z 31007KT 10SM CLR 07/04 A3031 RMK AO2 SLP263 T00670039 $
KPDX 151353Z 25004KT 10SM CLR 04/03 A3031 RMK AO2 SLP263 T00440028 $
KPDX 151453Z 29004KT 10SM CLR 06/03 A3031 RMK AO2 SLP262 T00610033 58001
KPDX 151553Z 31004KT 10SM CLR 09/04 A3032 RMK AO2 SLP266 T00940039
KPDX 151653Z 30005KT 10SM CLR 12/04 A3033 RMK AO2 SLP269 T01170044
KPDX 151753Z 30005KT 10SM FEW250 14/03 A3032 RMK AO2 SLP265 T01390028 10139 20044 50005
KPDX 151853Z 28004KT 10SM FEW250 17/M01 A3031 RMK AO2 SLP262 T01671006
KPDX 151953Z VRB03KT 10SM FEW250 18/03 A3029 RMK AO2 SLP255 T01830028
KPDX 152053Z VRB03KT 10SM FEW250 20/02 A3027 RMK AO2 SLP248 T02000022 58018
KPDX 152153Z 00000KT 10SM FEW250 22/03 A3025 RMK AO2 SLP243 T02170028
KPDX 152253Z 34003KT 10SM FEW250 23/04 A3023 RMK AO2 SLP237 T02330044
KPDX 152353Z 11004KT 10SM FEW250 22/01 A3022 RMK AO2 SLP232 T02220011 10239 20144 58016
KPDX 160053Z 11006KT 10SM FEW250 21/02 A3021 RMK AO2 SLP230 T02060022



Page loaded:  01:47 UTC  |   06:47 PM Pacific  |   07:47 PM Mountain  |   08:47 PM Central  |   09:47 PM Eastern

 

ADVISORIES

FORECASTS

FORECASTS

OBSERVATIONS

USER TOOLS

ABOUT US